Time;durP1;ratioP1;P1;durP2;ratioP2;P2;SDS_P1;SDS_P2;PMS_P1;PMS_P2;Temp;Humidity;BMP_temperature;BMP_pressure;BME280_temperature;BME280_humidity;BME280_pressure;Samples;Min_cycle;Max_cycle;Signal;HPM_P1;HPM_P2
2023/07/28 00:01:24;;;;;;;5.78;2.58;;;;;;;15.92;100.00;100398.78;4991337;28;20061;-78
2023/07/28 00:03:51;;;;;;;10.07;3.53;;;;;;;15.92;100.00;100395.19;4990903;28;20057;-74
2023/07/28 00:06:17;;;;;;;15.45;6.70;;;;;;;16.08;100.00;100389.34;4991981;28;20237;-76
2023/07/28 00:08:44;;;;;;;17.58;7.35;;;;;;;16.06;100.00;100381.38;4974386;28;20074;-75
2023/07/28 00:11:14;;;;;;;14.02;6.47;;;;;;;16.08;100.00;100378.91;4991529;28;20097;-77
2023/07/28 00:13:42;;;;;;;15.93;6.68;;;;;;;16.13;100.00;100381.09;4990523;28;20050;-76
2023/07/28 00:16:09;;;;;;;14.02;6.13;;;;;;;16.13;100.00;100385.94;4974079;28;20058;-76
2023/07/28 00:18:36;;;;;;;16.30;6.05;;;;;;;16.10;100.00;100378.44;4984019;28;20548;-75
2023/07/28 00:21:04;;;;;;;12.13;4.07;;;;;;;15.98;100.00;100380.13;4994156;28;20042;-76
2023/07/28 00:23:31;;;;;;;13.45;6.38;;;;;;;16.10;100.00;100373.59;4995231;28;20053;-76
2023/07/28 00:25:57;;;;;;;8.68;3.38;;;;;;;16.02;100.00;100377.16;4978297;28;20281;-75
2023/07/28 00:28:24;;;;;;;18.35;7.20;;;;;;;16.08;100.00;100366.91;4995446;28;20050;-76
2023/07/28 00:30:51;;;;;;;5.90;2.85;;;;;;;15.95;100.00;100369.81;4993700;28;20046;-74
2023/07/28 00:33:18;;;;;;;8.40;2.92;;;;;;;16.02;100.00;100363.13;4994094;28;20062;-75
2023/07/28 00:35:44;;;;;;;11.05;4.18;;;;;;;15.95;100.00;100369.03;4993451;28;20038;-74
2023/07/28 00:38:11;;;;;;;16.08;7.85;;;;;;;16.04;100.00;100369.84;4995015;28;20058;-77
2023/07/28 00:40:38;;;;;;;10.85;4.32;;;;;;;15.91;100.00;100362.81;4994725;28;20316;-76
2023/07/28 00:43:04;;;;;;;10.63;4.35;;;;;;;15.93;100.00;100372.28;4992497;28;20472;-72
2023/07/28 00:45:32;;;;;;;21.27;8.88;;;;;;;16.06;100.00;100361.75;4992169;28;20141;-75
2023/07/28 00:48:00;;;;;;;15.85;6.57;;;;;;;16.05;100.00;100362.22;4996129;28;20462;-76
2023/07/28 00:50:27;;;;;;;14.20;5.97;;;;;;;16.11;100.00;100358.34;4992770;28;20585;-76
2023/07/28 00:52:55;;;;;;;18.95;8.25;;;;;;;16.17;100.00;100353.66;4974081;28;20481;-77
2023/07/28 00:55:22;;;;;;;18.23;8.68;;;;;;;16.18;100.00;100360.84;4994109;28;20165;-77
2023/07/28 00:57:50;;;;;;;11.70;5.18;;;;;;;16.11;100.00;100363.16;4993974;28;20062;-76
2023/07/28 01:00:16;;;;;;;7.05;3.42;;;;;;;16.03;100.00;100353.50;4992764;28;20046;-75
2023/07/28 01:02:43;;;;;;;10.93;4.82;;;;;;;16.07;100.00;100359.75;4974777;28;20531;-76
2023/07/28 01:05:10;;;;;;;14.90;6.50;;;;;;;16.07;100.00;100371.72;4976184;28;20046;-76
2023/07/28 01:08:09;;;;;;;5.15;2.50;;;;;;;16.01;100.00;100375.59;4992349;28;20042;-77
2023/07/28 01:10:35;;;;;;;14.55;5.90;;;;;;;16.06;100.00;100369.38;4958342;28;20066;-75
2023/07/28 01:13:02;;;;;;;11.57;4.90;;;;;;;16.04;100.00;100371.88;4997394;28;20089;-78
2023/07/28 01:15:28;;;;;;;6.28;2.38;;;;;;;15.92;100.00;100367.94;4992490;28;20050;-76
2023/07/28 01:17:55;;;;;;;7.32;3.30;;;;;;;16.10;100.00;100381.25;4993411;28;20074;-75
2023/07/28 01:20:28;;;;;;;11.73;4.95;;;;;;;16.06;100.00;100377.78;4973667;28;20052;-76
2023/07/28 01:23:04;;;;;;;11.80;5.13;;;;;;;16.07;100.00;100373.75;4986871;28;20566;-76
2023/07/28 01:25:53;;;;;;;19.27;6.55;;;;;;;16.11;100.00;100369.56;4991332;28;20589;-75
2023/07/28 01:28:21;;;;;;;16.75;7.10;;;;;;;16.07;100.00;100365.34;4990899;28;20050;-76
2023/07/28 01:30:47;;;;;;;12.57;5.50;;;;;;;16.02;100.00;100368.75;4991387;28;20046;-76
2023/07/28 01:33:14;;;;;;;14.48;6.75;;;;;;;16.15;100.00;100372.22;4990174;28;20050;-76
2023/07/28 01:35:41;;;;;;;14.80;6.82;;;;;;;16.13;100.00;100363.50;4991484;28;20047;-77
2023/07/28 01:38:07;;;;;;;16.23;8.02;;;;;;;16.18;100.00;100369.28;4990064;28;20518;-76
2023/07/28 01:40:34;;;;;;;16.70;8.27;;;;;;;16.24;100.00;100369.44;4990540;28;20050;-76
2023/07/28 01:43:00;;;;;;;15.30;7.22;;;;;;;16.10;100.00;100353.97;4995944;28;20433;-75
2023/07/28 01:45:27;;;;;;;16.25;7.72;;;;;;;16.19;100.00;100370.03;4991728;28;20069;-76
2023/07/28 01:47:54;;;;;;;15.63;6.78;;;;;;;16.15;100.00;100366.59;4991676;28;20058;-79
2023/07/28 01:50:20;;;;;;;13.68;4.70;;;;;;;16.10;100.00;100365.19;4990455;28;20054;-76
2023/07/28 01:52:47;;;;;;;14.77;7.13;;;;;;;16.20;100.00;100377.97;4993602;28;20046;-75
2023/07/28 01:55:13;;;;;;;15.45;7.10;;;;;;;16.17;100.00;100369.75;4992868;28;20849;-77
2023/07/28 01:57:40;;;;;;;5.05;2.60;;;;;;;16.06;100.00;100374.97;4992611;28;20129;-76
2023/07/28 02:00:07;;;;;;;6.93;2.85;;;;;;;16.09;100.00;100374.84;4991664;28;20077;-73
2023/07/28 02:02:34;;;;;;;17.38;7.82;;;;;;;16.12;100.00;100379.53;4993147;28;20498;-76
2023/07/28 02:05:00;;;;;;;12.45;5.65;;;;;;;16.10;100.00;100373.59;4990950;28;20145;-75
2023/07/28 02:07:27;;;;;;;3.88;1.90;;;;;;;16.04;100.00;100380.28;4973988;28;20046;-73
2023/07/28 02:09:53;;;;;;;12.35;5.53;;;;;;;16.00;100.00;100366.41;4993139;28;20751;-75
2023/07/28 02:12:20;;;;;;;15.63;6.00;;;;;;;16.13;100.00;100369.88;4991603;28;20141;-79
2023/07/28 02:14:46;;;;;;;15.98;7.05;;;;;;;16.16;100.00;100373.75;4990847;28;20058;-76
2023/07/28 02:17:13;;;;;;;14.98;6.82;;;;;;;16.14;100.00;100373.47;4991364;28;20729;-79
2023/07/28 02:19:39;;;;;;;13.43;7.13;;;;;;;16.15;100.00;100375.81;4974646;28;20074;-77
2023/07/28 02:22:06;;;;;;;10.90;5.40;;;;;;;16.16;100.00;100374.56;4991302;28;20120;-77
2023/07/28 02:24:34;;;;;;;10.20;4.20;;;;;;;16.05;100.00;100370.63;4991838;28;20046;-76
2023/07/28 02:27:00;;;;;;;13.13;6.07;;;;;;;16.14;100.00;100376.28;4991882;28;20069;-75
2023/07/28 02:29:27;;;;;;;11.27;4.65;;;;;;;16.08;100.00;100383.72;4993137;28;20057;-77
2023/07/28 02:31:54;;;;;;;14.93;6.90;;;;;;;16.13;100.00;100378.28;4992902;28;20178;-79
2023/07/28 02:34:20;;;;;;;14.13;6.30;;;;;;;16.15;100.00;100378.59;4991520;28;20096;-75
2023/07/28 02:36:47;;;;;;;15.23;6.22;;;;;;;16.18;100.00;100383.28;4992382;28;20042;-76
2023/07/28 02:39:13;;;;;;;10.82;2.90;;;;;;;16.02;100.00;100383.56;4992170;28;20097;-77
2023/07/28 02:41:40;;;;;;;15.23;6.57;;;;;;;16.09;100.00;100390.88;4992078;28;20070;-76
2023/07/28 02:44:06;;;;;;;13.32;5.53;;;;;;;16.14;100.00;100391.06;4991928;28;20061;-77
2023/07/28 02:46:33;;;;;;;7.28;3.00;;;;;;;16.07;100.00;100396.94;4992154;28;20092;-77
2023/07/28 02:49:02;;;;;;;12.32;4.82;;;;;;;15.99;100.00;100398.50;4991221;28;20077;-73
2023/07/28 02:51:29;;;;;;;13.85;6.50;;;;;;;16.12;100.00;100401.97;4989958;28;20526;-78
2023/07/28 02:53:55;;;;;;;13.48;5.88;;;;;;;16.06;100.00;100409.41;4981775;28;20062;-75
2023/07/28 02:56:22;;;;;;;15.23;7.18;;;;;;;16.06;100.00;100412.22;4988917;28;20042;-77
2023/07/28 02:58:48;;;;;;;14.00;6.90;;;;;;;16.06;100.00;100412.22;4972791;28;20069;-76
2023/07/28 03:01:15;;;;;;;7.90;3.42;;;;;;;16.06;100.00;100409.41;4991608;28;20073;-76
2023/07/28 03:03:41;;;;;;;13.23;5.55;;;;;;;16.05;100.00;100409.88;4989838;28;20054;-77
2023/07/28 03:06:08;;;;;;;5.32;2.35;;;;;;;16.04;100.00;100423.09;4991779;28;20062;-77
2023/07/28 03:08:35;;;;;;;5.93;2.63;;;;;;;16.08;100.00;100420.19;4990954;28;20490;-74
2023/07/28 03:11:04;;;;;;;15.43;6.72;;;;;;;16.13;100.00;100414.75;4989752;28;20054;-77
2023/07/28 03:13:30;;;;;;;10.95;5.35;;;;;;;16.10;100.00;100421.25;4989411;28;20046;-75
2023/07/28 03:15:57;;;;;;;16.25;7.10;;;;;;;16.17;100.00;100426.59;4973618;28;20283;-76
2023/07/28 03:18:23;;;;;;;7.82;3.45;;;;;;;16.11;100.00;100422.84;4990734;28;20054;-79
2023/07/28 03:20:50;;;;;;;14.13;6.78;;;;;;;16.16;100.00;100424.25;4990887;28;20054;-74
2023/07/28 03:23:16;;;;;;;7.20;3.30;;;;;;;16.02;100.00;100427.63;4989403;28;20054;-74
2023/07/28 03:25:43;;;;;;;14.75;7.15;;;;;;;16.14;100.00;100421.91;4990062;28;20082;-78
2023/07/28 03:28:10;;;;;;;15.80;5.82;;;;;;;16.14;100.00;100427.50;4989187;28;20054;-78
2023/07/28 03:30:36;;;;;;;15.77;7.40;;;;;;;16.20;100.00;100425.66;4988302;28;20050;-77
2023/07/28 03:33:03;;;;;;;4.85;1.98;;;;;;;16.04;100.00;100431.53;4992225;28;20785;-79
2023/07/28 03:35:30;;;;;;;19.58;8.48;;;;;;;16.17;100.00;100426.59;4990533;28;20193;-77
2023/07/28 03:37:56;;;;;;;18.77;8.57;;;;;;;16.14;100.00;100427.50;4973076;28;20069;-76
2023/07/28 03:40:23;;;;;;;22.13;10.02;;;;;;;16.19;100.00;100431.72;4990862;28;20868;-76
2023/07/28 03:42:50;;;;;;;20.20;9.80;;;;;;;16.24;100.00;100425.53;4973656;28;20522;-76
2023/07/28 03:45:16;;;;;;;15.88;6.38;;;;;;;16.08;100.00;100423.78;4967011;28;20058;-77
2023/07/28 03:47:43;;;;;;;21.17;9.68;;;;;;;16.20;100.00;100431.28;4990608;28;20128;-77
2023/07/28 03:50:10;;;;;;;22.75;9.10;;;;;;;16.14;100.00;100438.72;4973686;28;20058;-75
2023/07/28 03:52:36;;;;;;;14.73;6.47;;;;;;;16.02;100.00;100438.84;4983191;28;20058;-77
2023/07/28 03:55:03;;;;;;;12.27;5.47;;;;;;;16.11;100.00;100441.69;4989330;28;20082;-77
2023/07/28 03:57:30;;;;;;;22.23;9.80;;;;;;;16.17;100.00;100437.03;4994755;28;20065;-76
2023/07/28 03:59:56;;;;;;;9.80;4.35;;;;;;;16.15;100.00;100442.31;4994489;28;20137;-77
2023/07/28 04:02:23;;;;;;;20.48;9.88;;;;;;;16.19;100.00;100446.53;4995196;28;20069;-77
2023/07/28 04:04:54;;;;;;;21.98;9.45;;;;;;;16.20;100.00;100434.06;4994555;28;20114;-77
2023/07/28 04:07:21;;;;;;;19.83;9.20;;;;;;;16.23;100.00;100440.78;4975482;28;20058;-76
2023/07/28 04:09:47;;;;;;;25.08;10.00;;;;;;;16.22;100.00;100439.22;4992584;28;20073;-77
2023/07/28 04:12:14;;;;;;;17.33;6.85;;;;;;;16.21;100.00;100449.69;4976656;28;20150;-78
2023/07/28 04:14:41;;;;;;;19.30;8.32;;;;;;;16.21;100.00;100449.69;4995102;28;20097;-77
2023/07/28 04:17:07;;;;;;;21.90;9.23;;;;;;;16.20;100.00;100453.72;4993733;28;20140;-76
2023/07/28 04:19:34;;;;;;;14.95;6.85;;;;;;;16.16;100.00;100449.47;4995662;28;20105;-75
2023/07/28 04:22:01;;;;;;;8.18;3.92;;;;;;;16.14;100.00;100447.13;4994287;28;20465;-76
2023/07/28 04:24:27;;;;;;;19.58;9.10;;;;;;;16.27;100.00;100436.63;4992617;28;20105;-80
2023/07/28 04:26:54;;;;;;;19.85;10.07;;;;;;;16.32;100.00;100415.59;4988252;28;20055;-78
2023/07/28 04:29:20;;;;;;;19.88;8.48;;;;;;;16.26;100.00;100420.25;4995451;28;20145;-76
2023/07/28 04:31:47;;;;;;;17.00;7.25;;;;;;;16.25;100.00;100430.72;4993878;28;20050;-75
2023/07/28 04:34:14;;;;;;;19.60;9.15;;;;;;;16.33;100.00;100426.34;4994302;28;20060;-76
2023/07/28 04:36:40;;;;;;;8.85;4.32;;;;;;;16.31;100.00;100428.06;4995143;28;20069;-78
2023/07/28 04:39:07;;;;;;;17.42;6.25;;;;;;;16.25;100.00;100433.53;4993265;28;20134;-77
2023/07/28 04:41:33;;;;;;;18.42;8.70;;;;;;;16.33;100.00;100437.59;4991001;28;20046;-77
2023/07/28 04:44:01;;;;;;;19.52;8.32;;;;;;;16.33;100.00;100446.00;4993704;28;20051;-77
2023/07/28 04:46:28;;;;;;;14.60;6.55;;;;;;;16.30;100.00;100454.56;4994252;28;20113;-79
2023/07/28 04:48:55;;;;;;;16.38;5.82;;;;;;;16.33;100.00;100453.63;4998686;28;20105;-75
2023/07/28 04:51:22;;;;;;;19.88;8.40;;;;;;;16.37;100.00;100455.03;4993863;28;20128;-76
2023/07/28 04:53:48;;;;;;;21.77;7.75;;;;;;;16.37;100.00;100454.28;4994294;28;20062;-77
2023/07/28 04:56:15;;;;;;;19.90;8.90;;;;;;;16.48;100.00;100458.19;4992237;28;20093;-77
2023/07/28 04:58:41;;;;;;;23.85;10.07;;;;;;;16.50;100.00;100463.34;4993011;28;20042;-74
2023/07/28 05:01:09;;;;;;;21.80;10.13;;;;;;;16.50;100.00;100466.13;4992731;28;20046;-76
2023/07/28 05:03:35;;;;;;;23.65;10.63;;;;;;;16.47;100.00;100456.63;4993055;28;20061;-76
2023/07/28 05:06:04;;;;;;;22.17;10.70;;;;;;;16.50;100.00;100450.09;4994874;28;20061;-75
2023/07/28 05:08:30;;;;;;;23.48;11.05;;;;;;;16.58;100.00;100444.97;4994054;28;20161;-76
2023/07/28 05:10:57;;;;;;;26.52;13.95;;;;;;;16.54;100.00;100453.53;4977136;28;20781;-76
2023/07/28 05:13:23;;;;;;;26.40;14.85;;;;;;;16.59;100.00;100452.94;4994855;28;20062;-77
2023/07/28 05:15:50;;;;;;;26.23;14.27;;;;;;;16.64;100.00;100451.53;4991088;28;20050;-76
2023/07/28 05:18:16;;;;;;;27.90;15.93;;;;;;;16.71;100.00;100448.44;4994999;28;20495;-76
2023/07/28 05:20:43;;;;;;;28.33;14.50;;;;;;;16.64;100.00;100454.34;4992739;28;20105;-78
2023/07/28 05:23:09;;;;;;;29.13;15.18;;;;;;;16.66;100.00;100452.63;4994495;28;20077;-77
2023/07/28 05:25:36;;;;;;;23.92;11.35;;;;;;;16.65;100.00;100451.03;4993424;28;20444;-74
2023/07/28 05:28:03;;;;;;;29.27;14.95;;;;;;;16.65;100.00;100448.25;4993878;28;20077;-76
2023/07/28 05:30:29;;;;;;;31.60;16.90;;;;;;;16.74;100.00;100453.09;4993028;28;20132;-77
2023/07/28 05:32:57;;;;;;;28.10;14.73;;;;;;;16.67;100.00;100448.56;4992859;28;20120;-78
2023/07/28 05:35:24;;;;;;;26.05;14.57;;;;;;;16.70;100.00;100444.84;4975564;28;20053;-77
2023/07/28 05:37:50;;;;;;;13.95;6.43;;;;;;;16.59;100.00;100449.34;4994034;28;20557;-76
2023/07/28 05:40:17;;;;;;;22.50;8.70;;;;;;;16.60;100.00;100451.66;4992722;28;20073;-76
2023/07/28 05:42:43;;;;;;;23.60;12.27;;;;;;;16.68;100.00;100450.13;4994062;28;20767;-77
2023/07/28 05:45:10;;;;;;;7.75;3.58;;;;;;;16.65;100.00;100445.44;4992704;28;20126;-74
2023/07/28 05:47:37;;;;;;;22.23;9.85;;;;;;;16.77;100.00;100452.94;4994774;28;20046;-76
2023/07/28 05:50:05;;;;;;;23.95;11.45;;;;;;;16.79;100.00;100444.06;4995122;28;20137;-77
2023/07/28 05:52:32;;;;;;;22.98;9.88;;;;;;;16.85;100.00;100448.56;4993160;28;20050;-78
2023/07/28 05:54:58;;;;;;;20.30;8.50;;;;;;;16.79;100.00;100461.69;4976137;28;20117;-76
2023/07/28 05:57:25;;;;;;;21.08;8.65;;;;;;;16.91;100.00;100463.56;4975640;28;20050;-75
2023/07/28 05:59:51;;;;;;;20.02;9.73;;;;;;;16.92;100.00;100462.31;4975133;28;20058;-77
2023/07/28 06:02:18;;;;;;;21.67;10.15;;;;;;;17.00;100.00;100469.19;4973868;28;20054;-76
2023/07/28 06:04:45;;;;;;;24.20;10.13;;;;;;;17.10;100.00;100476.38;4965631;28;20078;-74
2023/07/28 06:07:12;;;;;;;24.20;9.20;;;;;;;17.15;100.00;100484.19;4990033;28;20050;-76
2023/07/28 06:09:38;;;;;;;20.58;8.23;;;;;;;17.12;100.00;100482.31;4986156;28;20052;-78
2023/07/28 06:12:05;;;;;;;19.10;8.18;;;;;;;17.12;100.00;100484.38;4991901;28;20105;-76
2023/07/28 06:14:32;;;;;;;18.00;7.47;;;;;;;17.13;100.00;100486.72;4990544;28;20101;-77
2023/07/28 06:16:58;;;;;;;18.45;7.47;;;;;;;17.15;100.00;100487.00;4993318;28;20054;-78
2023/07/28 06:19:25;;;;;;;19.63;8.13;;;;;;;17.20;100.00;100482.78;4992158;28;20442;-77
2023/07/28 06:21:52;;;;;;;17.42;7.13;;;;;;;17.20;100.00;100492.00;4993654;28;20081;-77
2023/07/28 06:24:19;;;;;;;9.38;3.45;;;;;;;17.19;100.00;100492.47;4989530;28;20078;-78
2023/07/28 06:26:45;;;;;;;17.23;7.18;;;;;;;17.17;100.00;100487.34;4991880;28;20042;-77
2023/07/28 06:29:12;;;;;;;16.35;7.95;;;;;;;17.35;100.00;100492.16;4993831;28;20639;-73
2023/07/28 06:31:39;;;;;;;17.63;6.97;;;;;;;17.38;100.00;100490.44;4988712;28;20050;-73
2023/07/28 06:34:06;;;;;;;20.13;7.20;;;;;;;17.40;100.00;100485.91;4992966;28;20074;-76
2023/07/28 06:36:33;;;;;;;13.43;6.10;;;;;;;17.36;100.00;100476.88;4992952;28;20112;-78
2023/07/28 06:38:59;;;;;;;7.38;3.00;;;;;;;17.24;100.00;100472.19;4992593;28;20050;-77
2023/07/28 06:41:26;;;;;;;16.35;6.78;;;;;;;17.39;100.00;100475.94;4991489;28;20062;-77
2023/07/28 06:43:52;;;;;;;10.57;3.67;;;;;;;17.31;100.00;100483.88;4991125;28;20067;-78
2023/07/28 06:46:19;;;;;;;14.70;6.78;;;;;;;17.41;100.00;100481.84;4990925;28;20510;-76
2023/07/28 06:48:45;;;;;;;13.40;4.38;;;;;;;17.32;100.00;100481.88;4986610;28;20430;-75
2023/07/28 06:51:12;;;;;;;18.67;6.10;;;;;;;17.42;100.00;100477.81;4990642;28;20097;-77
2023/07/28 06:53:39;;;;;;;17.20;7.50;;;;;;;17.46;100.00;100480.44;4987355;28;20502;-76
2023/07/28 06:56:05;;;;;;;21.85;9.18;;;;;;;17.55;100.00;100494.50;4987277;28;20090;-75
2023/07/28 06:58:32;;;;;;;17.05;8.00;;;;;;;17.57;100.00;100498.38;4992045;28;20078;-75
2023/07/28 07:00:58;;;;;;;19.83;9.00;;;;;;;17.65;100.00;100490.41;4992279;28;20420;-75
2023/07/28 07:03:25;;;;;;;19.65;10.07;;;;;;;17.63;100.00;100478.84;4991194;28;20129;-78
2023/07/28 07:05:51;;;;;;;21.00;8.75;;;;;;;17.50;100.00;100484.66;4992857;28;20057;-75
2023/07/28 07:08:18;;;;;;;16.38;6.63;;;;;;;17.54;100.00;100488.06;4991801;28;20433;-78
2023/07/28 07:10:51;;;;;;;19.90;8.48;;;;;;;17.56;100.00;100493.22;4989897;28;20050;-77
2023/07/28 07:13:18;;;;;;;19.45;9.68;;;;;;;17.62;100.00;100492.13;4986859;28;20117;-79
2023/07/28 07:15:45;;;;;;;23.23;9.23;;;;;;;17.57;100.00;100491.97;4987443;28;20104;-78
2023/07/28 07:18:12;;;;;;;21.45;10.30;;;;;;;17.55;100.00;100488.88;4989755;28;20054;-79
2023/07/28 07:20:39;;;;;;;21.80;11.13;;;;;;;17.64;100.00;100491.66;4982781;28;20070;-76
2023/07/28 07:23:06;;;;;;;23.33;9.65;;;;;;;17.58;100.00;100494.31;4988097;28;20038;-78
2023/07/28 07:25:33;;;;;;;23.52;8.60;;;;;;;17.45;100.00;100495.75;4985966;28;20050;-77
2023/07/28 07:28:00;;;;;;;18.55;8.85;;;;;;;17.48;100.00;100497.63;4987320;28;20518;-77
2023/07/28 07:30:26;;;;;;;21.60;10.55;;;;;;;17.55;100.00;100491.69;4987324;28;20069;-78
2023/07/28 07:32:53;;;;;;;23.42;11.52;;;;;;;17.69;100.00;100502.28;4988712;28;20093;-76
2023/07/28 07:35:19;;;;;;;21.65;10.70;;;;;;;17.77;100.00;100509.13;4989500;28;20050;-74
2023/07/28 07:37:46;;;;;;;22.05;11.48;;;;;;;17.64;100.00;100508.50;4990342;28;20595;-78
2023/07/28 07:40:14;;;;;;;19.75;10.55;;;;;;;17.69;100.00;100510.69;4990022;28;20058;-76
2023/07/28 07:42:46;;;;;;;20.50;11.35;;;;;;;17.81;100.00;100509.72;4990860;28;20077;-78
2023/07/28 07:45:14;;;;;;;23.00;12.50;;;;;;;17.89;100.00;100519.41;4988329;28;20057;-79
2023/07/28 07:47:41;;;;;;;21.40;11.00;;;;;;;17.98;100.00;100511.75;4988738;28;20070;-77
2023/07/28 07:50:10;;;;;;;20.58;10.98;;;;;;;17.96;100.00;100517.06;4993917;28;20069;-78
2023/07/28 07:52:37;;;;;;;21.10;10.18;;;;;;;17.80;100.00;100511.00;4990147;28;20074;-76
2023/07/28 07:55:10;;;;;;;22.40;9.90;;;;;;;17.98;100.00;100516.59;4971211;28;20076;-78
2023/07/28 07:57:37;;;;;;;21.73;11.32;;;;;;;18.02;100.00;100511.59;4986062;28;20769;-78
2023/07/28 08:00:07;;;;;;;20.70;9.75;;;;;;;17.95;100.00;100500.69;4983579;28;20105;-76
2023/07/28 08:02:34;;;;;;;22.25;11.80;;;;;;;18.04;100.00;100495.81;4989039;28;20054;-78
2023/07/28 08:05:00;;;;;;;23.95;12.23;;;;;;;18.20;100.00;100489.81;4983099;28;20065;-78
2023/07/28 08:07:27;;;;;;;8.48;2.90;;;;;;;18.16;100.00;100488.41;4988187;28;20046;-80
2023/07/28 08:09:53;;;;;;;23.65;13.43;;;;;;;18.32;100.00;100488.03;4988280;28;20498;-78
2023/07/28 08:12:20;;;;;;;21.40;10.60;;;;;;;18.39;100.00;100480.03;4989157;28;20485;-77
2023/07/28 08:14:47;;;;;;;21.60;11.02;;;;;;;18.43;100.00;100477.81;4975640;28;20069;-76
2023/07/28 08:17:13;;;;;;;22.40;12.77;;;;;;;18.68;100.00;100494.25;4987241;28;20525;-78
2023/07/28 08:19:40;;;;;;;18.38;9.02;;;;;;;18.68;100.00;100479.38;4987813;28;20109;-77
2023/07/28 08:22:07;;;;;;;10.48;4.53;;;;;;;18.62;100.00;100484.09;4988044;28;20505;-76
2023/07/28 08:24:33;;;;;;;20.40;12.07;;;;;;;18.98;100.00;100475.47;4986139;28;20050;-76
2023/07/28 08:27:00;;;;;;;19.80;11.50;;;;;;;18.93;100.00;100470.47;4987799;28;20046;-75
2023/07/28 08:29:26;;;;;;;20.58;10.52;;;;;;;18.99;100.00;100485.47;4987608;28;20078;-76
2023/07/28 08:31:53;;;;;;;22.17;13.80;;;;;;;19.00;100.00;100482.16;4987592;28;20054;-79
2023/07/28 08:34:19;;;;;;;22.60;14.45;;;;;;;18.95;100.00;100476.41;4985146;28;20082;-75
2023/07/28 08:36:46;;;;;;;24.27;13.80;;;;;;;18.89;100.00;100479.13;4963898;28;20074;-76
2023/07/28 08:39:14;;;;;;;22.90;15.32;;;;;;;18.96;100.00;100483.59;4988548;28;20137;-75
2023/07/28 08:41:41;;;;;;;21.25;11.70;;;;;;;18.73;100.00;100485.16;4990026;28;20049;-76
2023/07/28 08:44:08;;;;;;;21.73;12.32;;;;;;;18.77;100.00;100488.59;4993534;28;20477;-76
2023/07/28 08:46:35;;;;;;;23.75;12.38;;;;;;;18.79;100.00;100494.53;4993144;28;20046;-79
2023/07/28 08:49:02;;;;;;;22.02;13.55;;;;;;;18.86;100.00;100491.34;4992080;28;20081;-78
2023/07/28 08:51:29;;;;;;;22.30;9.88;;;;;;;18.76;100.00;100497.50;4987160;28;20060;-78
2023/07/28 08:53:55;;;;;;;23.15;13.10;;;;;;;18.77;100.00;100501.91;4989980;28;20050;-78
2023/07/28 08:56:23;;;;;;;23.60;11.27;;;;;;;18.74;100.00;100494.41;4989753;28;20065;-79
2023/07/28 08:58:57;;;;;;;27.58;16.17;;;;;;;18.91;100.00;100498.34;4988513;28;20076;-78
2023/07/28 09:01:23;;;;;;;25.55;14.05;;;;;;;18.87;100.00;100492.13;4990425;28;20533;-79
2023/07/28 09:03:50;;;;;;;26.85;16.98;;;;;;;19.03;100.00;100494.50;4956937;28;20055;-78
2023/07/28 09:06:18;;;;;;;25.45;15.65;;;;;;;19.25;100.00;100498.56;4989414;28;20080;-77
2023/07/28 09:08:45;;;;;;;22.80;11.43;;;;;;;19.23;100.00;100497.47;4992798;28;20058;-78
2023/07/28 09:11:13;;;;;;;20.77;11.52;;;;;;;19.21;100.00;100494.38;4991094;28;20089;-78
2023/07/28 09:13:41;;;;;;;12.13;5.28;;;;;;;19.21;100.00;100483.88;4984012;28;20117;-78
2023/07/28 09:16:18;;;;;;;20.20;10.85;;;;;;;19.19;100.00;100486.41;4991685;28;20046;-78
2023/07/28 09:18:45;;;;;;;15.68;8.38;;;;;;;19.13;100.00;100488.34;4987355;28;20161;-78
2023/07/28 09:21:21;;;;;;;20.48;9.80;;;;;;;19.22;100.00;100485.44;4987303;28;20074;-78
2023/07/28 09:23:48;;;;;;;18.60;10.27;;;;;;;19.20;100.00;100487.97;4984809;28;20046;-77
2023/07/28 09:26:15;;;;;;;16.75;8.82;;;;;;;19.27;100.00;100492.44;4993156;28;20594;-75
2023/07/28 09:28:42;;;;;;;17.23;9.13;;;;;;;19.40;100.00;100484.50;4975585;28;20073;-77
2023/07/28 09:31:10;;;;;;;18.38;9.32;;;;;;;19.65;100.00;100481.91;4992066;28;20050;-77
2023/07/28 09:33:42;;;;;;;18.73;8.40;;;;;;;19.79;100.00;100494.50;4993055;28;20138;-77
2023/07/28 09:36:14;;;;;;;9.00;4.47;;;;;;;19.70;100.00;100477.66;4988710;28;20051;-77
2023/07/28 09:38:41;;;;;;;13.68;5.72;;;;;;;19.82;100.00;100478.63;4984007;28;20066;-77
2023/07/28 09:41:11;;;;;;;8.35;3.92;;;;;;;19.80;100.00;100473.47;4994402;28;20046;-77
2023/07/28 09:43:39;;;;;;;14.18;5.57;;;;;;;19.97;100.00;100477.34;4991609;28;20098;-77
2023/07/28 09:46:07;;;;;;;8.80;2.67;;;;;;;19.70;100.00;100463.56;4982972;28;20058;-80
2023/07/28 09:48:37;;;;;;;4.38;2.72;;;;;;;19.75;100.00;100465.69;4965243;28;20150;-77
2023/07/28 09:51:11;;;;;;;14.75;5.30;;;;;;;19.93;100.00;100473.94;4971915;28;20101;-77
2023/07/28 09:53:45;;;;;;;6.57;3.10;;;;;;;19.93;100.00;100471.13;4975445;28;20117;-76
2023/07/28 09:56:16;;;;;;;6.53;2.58;;;;;;;19.61;100.00;100480.56;4981323;28;20801;-77
2023/07/28 09:58:52;;;;;;;10.63;5.07;;;;;;;19.75;100.00;100466.47;4984346;28;20158;-77
2023/07/28 10:01:19;;;;;;;12.45;5.88;;;;;;;19.83;100.00;100471.72;4983872;28;20695;-77
2023/07/28 10:03:47;;;;;;;12.20;5.90;;;;;;;19.90;100.00;100465.66;4980217;28;20787;-78
2023/07/28 10:06:14;;;;;;;12.50;6.00;;;;;;;;;;4977710;28;20065;-77
2023/07/28 10:08:41;;;;;;;9.65;4.97;;;;;;;20.22;100.00;100482.41;4980175;28;20506;-78
2023/07/28 10:11:08;;;;;;;6.57;2.92;;;;;;;19.82;100.00;100470.94;4988175;28;20058;-76
2023/07/28 10:13:43;;;;;;;9.57;4.68;;;;;;;20.03;100.00;100483.88;4974849;28;20074;-77
2023/07/28 10:16:10;;;;;;;5.43;3.05;;;;;;;19.80;100.00;100484.75;4991361;28;20053;-77
2023/07/28 10:18:37;;;;;;;3.30;1.95;;;;;;;19.88;100.00;100497.19;4994447;28;20092;-78
2023/07/28 10:21:13;;;;;;;4.07;1.85;;;;;;;19.75;100.00;100505.94;4990953;28;20439;-78
2023/07/28 10:23:39;;;;;;;7.43;3.72;;;;;;;19.70;100.00;100512.28;4994624;28;20042;-77
2023/07/28 10:26:06;;;;;;;6.45;2.78;;;;;;;19.59;100.00;100523.38;4993053;28;20054;-77
2023/07/28 10:28:43;;;;;;;9.02;3.97;;;;;;;19.82;100.00;100521.72;4995245;28;20057;-77
2023/07/28 10:31:11;;;;;;;7.50;3.75;;;;;;;19.79;100.00;100517.81;4993087;28;20050;-74
2023/07/28 10:33:46;;;;;;;4.18;1.95;;;;;;;19.75;100.00;100522.13;4992816;28;20042;-75
2023/07/28 10:36:15;;;;;;;12.40;5.47;;;;;;;19.84;100.00;100521.25;4991923;28;20058;-79
2023/07/28 10:38:43;;;;;;;14.88;6.13;;;;;;;19.91;100.00;100513.16;4991318;28;20053;-75
2023/07/28 10:41:16;;;;;;;4.38;2.00;;;;;;;19.73;100.00;100504.88;4993239;28;20486;-75
2023/07/28 10:43:44;;;;;;;12.65;5.32;;;;;;;19.95;100.00;100507.31;4988174;28;20047;-75
2023/07/28 10:46:16;;;;;;;13.40;5.53;;;;;;;20.02;100.00;100512.56;4996682;28;20149;-77
2023/07/28 10:48:48;;;;;;;13.90;6.45;;;;;;;20.13;100.00;100513.53;4996070;28;20104;-76
2023/07/28 10:51:32;;;;;;;13.80;6.50;;;;;;;20.13;100.00;100507.09;4994612;28;20526;-77
2023/07/28 10:54:02;;;;;;;12.60;5.60;;;;;;;20.26;100.00;100499.94;4994665;28;20050;-77
2023/07/28 10:56:29;;;;;;;13.80;6.10;;;;;;;20.37;100.00;100505.75;4994980;28;20058;-75
2023/07/28 10:59:04;;;;;;;12.02;5.35;;;;;;;20.27;100.00;100501.47;4990073;28;20120;-78
2023/07/28 11:01:33;;;;;;;;;;;;;;;20.32;100.00;100485.91;4989978;28;20085;-75
2023/07/28 11:04:08;;;;;;;7.40;2.72;;;;;;;20.41;100.00;100483.72;4992964;28;19922;-78
2023/07/28 11:06:35;;;;;;;5.18;2.40;;;;;;;20.39;100.00;100466.50;4988542;28;20050;-78
2023/07/28 11:09:05;;;;;;;10.07;4.70;;;;;;;20.78;100.00;100470.66;4988806;28;20082;-77
2023/07/28 11:11:34;;;;;;;10.90;4.70;;;;;;;20.90;100.00;100466.72;4989051;28;20066;-76